createdAt,value
2023-04-15T00:00:12.426Z,99.90
2023-04-15T00:03:07.506Z,99.90
2023-04-15T00:06:02.702Z,99.90
2023-04-15T00:08:57.037Z,99.90
2023-04-15T00:11:52.723Z,99.90
2023-04-15T00:14:46.914Z,99.90
2023-04-15T00:17:41.196Z,99.90
2023-04-15T00:20:35.653Z,99.90
2023-04-15T00:23:30.039Z,99.90
2023-04-15T00:26:24.217Z,99.90
2023-04-15T00:29:18.417Z,99.90
2023-04-15T00:32:12.594Z,99.90
2023-04-15T00:35:07.096Z,99.90
2023-04-15T00:38:01.812Z,99.90
2023-04-15T00:40:56.416Z,99.90
2023-04-15T00:43:50.593Z,99.90
2023-04-15T00:46:46.568Z,99.90
2023-04-15T00:49:40.738Z,99.90
2023-04-15T00:52:35.949Z,99.90
2023-04-15T00:55:30.254Z,99.90
2023-04-15T00:58:24.902Z,99.90
2023-04-15T01:01:23.045Z,99.90
2023-04-15T01:04:18.286Z,99.90
2023-04-15T01:07:12.686Z,99.90
2023-04-15T01:10:07.296Z,99.90
2023-04-15T01:13:01.456Z,99.90
2023-04-15T01:15:58.188Z,99.90
2023-04-15T01:18:53.348Z,99.90
2023-04-15T01:21:48.196Z,99.90
2023-04-15T01:24:43.009Z,99.90
2023-04-15T01:27:38.319Z,99.90
2023-04-15T01:30:36.846Z,99.90
2023-04-15T01:33:31.026Z,99.90
2023-04-15T01:36:25.137Z,99.90
2023-04-15T01:39:19.369Z,99.90
2023-04-15T01:42:13.533Z,99.90
2023-04-15T01:45:08.356Z,99.90
2023-04-15T01:48:02.544Z,99.90
2023-04-15T01:50:59.298Z,99.90
2023-04-15T01:53:53.631Z,99.90
2023-04-15T01:56:48.034Z,99.90
2023-04-15T01:59:42.360Z,99.90
2023-04-15T02:02:37.192Z,99.90
2023-04-15T02:05:31.673Z,99.90
2023-04-15T02:08:25.875Z,99.90
2023-04-15T02:11:20.940Z,99.90
2023-04-15T02:14:15.624Z,99.90
2023-04-15T02:17:09.955Z,99.90
2023-04-15T02:20:05.977Z,99.90
2023-04-15T02:23:00.264Z,99.90
2023-04-15T02:25:54.516Z,99.90
2023-04-15T02:28:50.056Z,99.90
2023-04-15T02:31:44.992Z,99.90
2023-04-15T02:34:42.442Z,99.90
2023-04-15T02:37:44.463Z,99.90
2023-04-15T02:40:39.004Z,99.90
2023-04-15T02:43:33.229Z,99.90
2023-04-15T02:46:28.654Z,99.90
2023-04-15T02:49:26.149Z,99.90
2023-04-15T02:52:20.324Z,99.90
2023-04-15T02:55:14.852Z,99.90
2023-04-15T02:58:09.322Z,99.90
2023-04-15T03:01:03.833Z,99.90
2023-04-15T03:03:58.117Z,99.90
2023-04-15T03:06:52.631Z,99.90
2023-04-15T03:09:48.988Z,99.90
2023-04-15T03:12:43.225Z,99.90
2023-04-15T03:15:37.641Z,99.90
2023-04-15T03:18:31.875Z,99.90
2023-04-15T03:21:26.103Z,99.90
2023-04-15T03:24:20.437Z,99.90
2023-04-15T03:27:14.996Z,99.90
2023-04-15T03:30:10.137Z,99.90
2023-04-15T03:33:04.345Z,99.90
2023-04-15T03:35:58.704Z,99.90
2023-04-15T03:38:52.938Z,99.90
2023-04-15T03:41:47.180Z,99.90
2023-04-15T03:44:41.290Z,99.90
2023-04-15T03:47:35.682Z,99.90
2023-04-15T03:50:29.967Z,99.90
2023-04-15T03:53:24.441Z,99.90
2023-04-15T03:56:18.631Z,99.90
2023-04-15T03:59:12.835Z,99.30
2023-04-15T04:02:07.052Z,97.50
2023-04-15T04:05:01.317Z,96.70
2023-04-15T04:07:55.518Z,96.40
2023-04-15T04:10:49.991Z,95.70
2023-04-15T04:13:44.193Z,95.50
2023-04-15T04:16:38.381Z,94.40
2023-04-15T04:19:32.631Z,94.50
2023-04-15T04:22:26.892Z,94.40
2023-04-15T04:25:21.110Z,93.80
2023-04-15T04:28:15.292Z,94.90
2023-04-15T04:31:10.167Z,94.50
2023-04-15T04:34:04.336Z,93.90
2023-04-15T04:36:58.662Z,94.00
2023-04-15T04:39:52.905Z,93.90
2023-04-15T04:42:47.322Z,93.40
2023-04-15T04:45:41.499Z,92.50
2023-04-15T04:48:35.755Z,92.90
2023-04-15T04:51:29.918Z,93.20
2023-04-15T04:54:24.918Z,93.30
2023-04-15T04:57:19.007Z,93.10
2023-04-15T05:00:13.769Z,93.10
2023-04-15T05:03:08.360Z,91.60
2023-04-15T05:06:04.321Z,92.40
2023-04-15T05:08:58.655Z,92.20
2023-04-15T05:11:52.856Z,91.60
2023-04-15T05:14:47.972Z,91.60
2023-04-15T05:17:42.164Z,91.40
2023-04-15T05:20:36.388Z,91.00
2023-04-15T05:23:30.622Z,88.10
2023-04-15T05:26:25.515Z,88.50
2023-04-15T05:29:19.712Z,87.70
2023-04-15T05:32:13.816Z,88.90
2023-04-15T05:35:09.247Z,91.00
2023-04-15T05:38:03.350Z,91.50
2023-04-15T05:40:57.797Z,91.20
2023-04-15T05:43:51.894Z,90.10
2023-04-15T05:46:46.016Z,87.70
2023-04-15T05:49:40.159Z,86.30
2023-04-15T05:52:34.518Z,84.90
2023-04-15T05:55:28.671Z,83.50
2023-04-15T05:58:22.781Z,82.20
2023-04-15T06:01:17.222Z,80.60
2023-04-15T06:04:11.449Z,78.90
2023-04-15T06:07:05.672Z,80.40
2023-04-15T06:09:59.821Z,80.50
2023-04-15T06:12:57.896Z,81.20
2023-04-15T06:15:52.096Z,83.50
2023-04-15T06:18:46.504Z,86.00
2023-04-15T06:21:40.779Z,86.70
2023-04-15T06:24:35.003Z,85.30
2023-04-15T06:27:29.196Z,84.30
2023-04-15T06:30:24.481Z,82.30
2023-04-15T06:33:18.848Z,81.90
2023-04-15T06:36:13.139Z,82.20
2023-04-15T06:39:07.243Z,82.90
2023-04-15T06:42:01.443Z,83.30
2023-04-15T06:44:55.638Z,83.20
2023-04-15T06:47:49.851Z,80.10
2023-04-15T06:50:44.096Z,80.20
2023-04-15T06:53:42.199Z,81.10
2023-04-15T06:56:36.451Z,81.80
2023-04-15T06:59:30.636Z,85.00
2023-04-15T07:02:25.102Z,87.40
2023-04-15T07:05:20.269Z,89.40
2023-04-15T07:08:15.290Z,90.20
2023-04-15T07:11:09.892Z,90.60
2023-04-15T07:14:04.113Z,91.10
2023-04-15T07:16:58.777Z,91.30
2023-04-15T07:19:52.971Z,91.60
2023-04-15T07:22:47.108Z,91.40
2023-04-15T07:25:41.712Z,91.50
2023-04-15T07:28:35.899Z,92.00
2023-04-15T07:31:30.264Z,91.50
2023-04-15T07:34:24.699Z,91.70
2023-04-15T07:37:18.864Z,91.80
2023-04-15T07:40:13.427Z,91.20
2023-04-15T07:43:07.926Z,90.50
2023-04-15T07:46:02.077Z,90.90
2023-04-15T07:48:56.628Z,90.80
2023-04-15T07:51:51.222Z,90.80
2023-04-15T07:54:45.425Z,90.30
2023-04-15T07:57:39.690Z,92.00
2023-04-15T08:00:33.953Z,92.80
2023-04-15T08:03:28.935Z,94.30
2023-04-15T08:06:25.212Z,95.40
2023-04-15T08:09:19.504Z,95.60
2023-04-15T08:12:14.695Z,95.90
2023-04-15T08:15:09.473Z,96.70
2023-04-15T08:18:03.632Z,97.40
2023-04-15T08:20:57.796Z,97.60
2023-04-15T08:23:54.567Z,98.00
2023-04-15T08:26:48.970Z,98.50
2023-04-15T08:29:43.085Z,99.10
2023-04-15T08:32:37.201Z,99.50
2023-04-15T08:35:31.802Z,99.90
2023-04-15T08:38:26.137Z,99.90
2023-04-15T08:41:26.475Z,99.90
2023-04-15T08:44:21.351Z,99.90
2023-04-15T08:47:17.879Z,99.90
2023-04-15T08:50:12.879Z,99.90
2023-04-15T08:53:07.628Z,99.90
2023-04-15T08:56:07.350Z,99.90
2023-04-15T08:59:04.606Z,99.90
2023-04-15T09:01:59.491Z,99.90
2023-04-15T09:04:53.934Z,99.90
2023-04-15T09:07:48.035Z,99.90
2023-04-15T09:10:42.305Z,99.90
2023-04-15T09:13:36.484Z,99.90
2023-04-15T09:16:30.719Z,99.90
2023-04-15T09:19:26.383Z,99.90
2023-04-15T09:22:23.554Z,99.90
2023-04-15T09:25:17.624Z,99.90
2023-04-15T09:28:12.686Z,99.90
2023-04-15T09:31:06.896Z,99.90
2023-04-15T09:34:01.577Z,99.90
2023-04-15T09:36:58.121Z,99.90
2023-04-15T09:39:54.132Z,99.90
2023-04-15T09:42:58.142Z,99.90
2023-04-15T09:45:54.392Z,99.90
2023-04-15T09:48:48.614Z,99.90
2023-04-15T09:51:51.194Z,99.90
2023-04-15T09:54:57.710Z,99.90
2023-04-15T09:57:51.920Z,99.90
2023-04-15T10:00:48.554Z,99.90
2023-04-15T10:03:43.952Z,99.90
2023-04-15T10:06:38.343Z,99.90
2023-04-15T10:09:34.813Z,99.90
2023-04-15T10:12:30.190Z,99.90
2023-04-15T10:15:25.100Z,99.90
2023-04-15T10:18:22.253Z,99.90
2023-04-15T10:21:19.730Z,99.90
2023-04-15T10:24:14.572Z,99.90
2023-04-15T10:27:09.750Z,99.90
2023-04-15T10:30:04.986Z,99.90
2023-04-15T10:32:59.666Z,99.90
2023-04-15T10:35:56.164Z,99.90
2023-04-15T10:38:50.398Z,99.90
2023-04-15T10:41:44.620Z,99.90
2023-04-15T10:44:42.798Z,99.90
2023-04-15T10:47:37.017Z,99.90
2023-04-15T10:50:33.827Z,99.90
2023-04-15T10:53:32.264Z,99.90
2023-04-15T10:56:26.701Z,99.90
2023-04-15T10:59:22.321Z,99.90
2023-04-15T11:02:17.098Z,99.90
2023-04-15T11:05:12.714Z,99.90
2023-04-15T11:08:07.024Z,99.90
2023-04-15T11:11:01.264Z,99.90
2023-04-15T11:13:55.419Z,99.90
2023-04-15T11:16:49.870Z,99.90
2023-04-15T11:19:45.073Z,99.90
2023-04-15T11:22:39.338Z,99.90
2023-04-15T11:25:35.228Z,99.90
2023-04-15T11:28:31.717Z,99.90
2023-04-15T11:31:29.941Z,99.90
2023-04-15T11:34:27.586Z,99.90
2023-04-15T11:37:30.853Z,99.90
2023-04-15T11:40:26.920Z,99.90
2023-04-15T11:43:23.957Z,99.90
2023-04-15T11:46:18.347Z,99.90
2023-04-15T11:49:12.707Z,99.90
2023-04-15T11:52:13.459Z,99.90
2023-04-15T11:55:10.193Z,99.90
2023-04-15T11:58:18.072Z,99.90
2023-04-15T12:01:12.543Z,99.90
2023-04-15T12:04:17.002Z,99.90
2023-04-15T12:07:11.943Z,99.90
2023-04-15T12:10:06.264Z,99.90
2023-04-15T12:13:00.536Z,99.90
2023-04-15T12:15:57.202Z,99.90
2023-04-15T12:18:59.076Z,99.90
2023-04-15T12:21:54.134Z,99.90
2023-04-15T12:24:49.951Z,99.90
2023-04-15T12:27:52.205Z,99.90
2023-04-15T12:30:53.792Z,99.90
2023-04-15T12:33:51.090Z,99.90
2023-04-15T12:36:45.220Z,99.90
2023-04-15T12:39:41.763Z,99.90
2023-04-15T12:42:36.697Z,99.90
2023-04-15T12:45:30.845Z,99.90
2023-04-15T12:48:25.403Z,99.90
2023-04-15T12:51:19.529Z,99.90
2023-04-15T12:54:13.783Z,99.90
2023-04-15T12:57:08.452Z,99.90
2023-04-15T13:00:02.765Z,99.90
2023-04-15T13:02:57.147Z,99.90
2023-04-15T13:05:51.403Z,99.90
2023-04-15T13:08:57.371Z,99.90
2023-04-15T13:11:53.061Z,99.90
2023-04-15T13:14:47.258Z,99.90
2023-04-15T13:17:41.775Z,99.90
2023-04-15T13:20:35.923Z,99.90
2023-04-15T13:23:30.871Z,99.90
2023-04-15T13:26:24.971Z,99.90
2023-04-15T13:29:19.121Z,99.90
2023-04-15T13:32:13.212Z,99.90
2023-04-15T13:35:07.977Z,99.90
2023-04-15T13:38:02.423Z,99.90
2023-04-15T13:40:56.699Z,99.90
2023-04-15T13:43:50.783Z,99.90
2023-04-15T13:46:44.952Z,99.90
2023-04-15T13:49:39.065Z,99.90
2023-04-15T13:52:33.481Z,99.90
2023-04-15T13:55:28.764Z,99.90
2023-04-15T13:58:22.968Z,99.90
2023-04-15T14:01:17.503Z,99.90
2023-04-15T14:04:11.981Z,99.90
2023-04-15T14:07:06.566Z,99.90
2023-04-15T14:10:01.676Z,99.90
2023-04-15T14:12:55.792Z,99.90
2023-04-15T14:15:50.072Z,99.90
2023-04-15T14:18:45.861Z,99.90
2023-04-15T14:21:41.051Z,99.90
2023-04-15T14:24:35.205Z,99.90
2023-04-15T14:27:30.074Z,99.90
2023-04-15T14:30:24.223Z,99.90
2023-04-15T14:33:18.488Z,99.90
2023-04-15T14:36:13.019Z,99.90
2023-04-15T14:39:07.364Z,99.90
2023-04-15T14:42:01.667Z,99.90
2023-04-15T14:44:55.821Z,99.90
2023-04-15T14:47:49.990Z,99.90
2023-04-15T14:50:44.308Z,99.90
2023-04-15T14:53:38.443Z,99.90
2023-04-15T14:56:32.728Z,99.90
2023-04-15T14:59:27.305Z,99.90
2023-04-15T15:02:37.347Z,99.90
2023-04-15T15:05:32.298Z,99.90
2023-04-15T15:08:26.735Z,99.90
2023-04-15T15:11:20.886Z,99.90
2023-04-15T15:14:15.039Z,99.90
2023-04-15T15:17:09.293Z,99.90
2023-04-15T15:20:04.836Z,99.90
2023-04-15T15:22:59.141Z,99.90
2023-04-15T15:25:53.356Z,99.90
2023-04-15T15:28:47.519Z,99.90
2023-04-15T15:31:41.836Z,99.90
2023-04-15T15:34:36.023Z,99.90
2023-04-15T15:37:31.847Z,99.90
2023-04-15T15:40:26.181Z,99.90
2023-04-15T15:43:20.349Z,99.90
2023-04-15T15:46:14.544Z,99.90
2023-04-15T15:49:08.888Z,99.90
2023-04-15T15:52:03.087Z,99.90
2023-04-15T15:54:57.414Z,99.90
2023-04-15T15:57:51.581Z,99.90
2023-04-15T16:00:45.867Z,99.90
2023-04-15T16:03:40.629Z,99.90
2023-04-15T16:06:35.353Z,99.90
2023-04-15T16:09:29.700Z,99.90
2023-04-15T16:12:23.827Z,99.90
2023-04-15T16:15:18.001Z,99.90
2023-04-15T16:18:12.162Z,99.90
2023-04-15T16:21:07.230Z,99.90
2023-04-15T16:24:01.677Z,99.90
2023-04-15T16:26:55.778Z,99.90
2023-04-15T16:29:50.035Z,99.90
2023-04-15T16:32:44.396Z,99.90
2023-04-15T16:35:38.654Z,99.90
2023-04-15T16:38:33.031Z,99.90
2023-04-15T16:41:27.213Z,99.90
2023-04-15T16:44:21.510Z,99.90
2023-04-15T16:47:16.054Z,99.90
2023-04-15T16:50:10.974Z,99.90
2023-04-15T16:53:05.170Z,99.90
2023-04-15T16:55:59.345Z,99.90
2023-04-15T16:58:53.467Z,99.90
2023-04-15T17:01:50.664Z,99.90
2023-04-15T17:04:44.420Z,99.90
2023-04-15T17:07:38.572Z,99.90
2023-04-15T17:10:32.973Z,99.90
2023-04-15T17:13:27.867Z,99.90
2023-04-15T17:16:22.199Z,99.90
2023-04-15T17:19:16.357Z,99.90
2023-04-15T17:22:10.690Z,99.90
2023-04-15T17:25:05.774Z,99.90
2023-04-15T17:27:59.937Z,99.90
2023-04-15T17:30:54.078Z,99.90
2023-04-15T17:34:00.516Z,99.90
2023-04-15T17:37:02.508Z,99.90
2023-04-15T17:39:56.688Z,99.90
2023-04-15T17:42:50.757Z,99.90
2023-04-15T17:45:45.583Z,99.90
2023-04-15T17:48:39.812Z,99.90
2023-04-15T17:51:34.019Z,99.90
2023-04-15T17:54:28.189Z,99.90
2023-04-15T17:57:22.361Z,99.90
2023-04-15T18:00:17.745Z,99.90
2023-04-15T18:03:12.092Z,99.90
2023-04-15T18:06:06.998Z,99.90
2023-04-15T18:09:01.405Z,99.90
2023-04-15T18:11:55.523Z,99.90
2023-04-15T18:14:49.696Z,99.90
2023-04-15T18:17:43.915Z,99.90
2023-04-15T18:20:38.221Z,99.90
2023-04-15T18:23:32.381Z,99.90
2023-04-15T18:26:27.208Z,99.90
2023-04-15T18:29:21.685Z,99.90
2023-04-15T18:32:15.842Z,99.90
2023-04-15T18:35:10.500Z,99.90
2023-04-15T18:38:07.058Z,99.90
2023-04-15T18:41:01.250Z,99.90
2023-04-15T18:43:57.293Z,99.90
2023-04-15T18:46:51.482Z,99.90
2023-04-15T18:49:45.574Z,99.90
2023-04-15T18:52:39.844Z,99.90
2023-04-15T18:55:34.014Z,99.90
2023-04-15T18:58:29.120Z,99.90
2023-04-15T19:01:43.239Z,99.90
2023-04-15T19:04:37.538Z,99.90
2023-04-15T19:07:32.802Z,99.90
2023-04-15T19:10:29.112Z,99.90
2023-04-15T19:13:23.832Z,99.90
2023-04-15T19:16:18.031Z,99.90
2023-04-15T19:19:15.497Z,99.90
2023-04-15T19:22:11.036Z,99.90
2023-04-15T19:25:06.845Z,99.90
2023-04-15T19:28:01.099Z,99.90
2023-04-15T19:30:55.626Z,99.90
2023-04-15T19:33:49.804Z,99.90
2023-04-15T19:36:44.232Z,99.90
2023-04-15T19:39:38.394Z,99.90
2023-04-15T19:42:32.534Z,99.90
2023-04-15T19:45:26.747Z,99.90
2023-04-15T19:48:21.405Z,99.90
2023-04-15T19:51:15.537Z,99.90
2023-04-15T19:54:09.660Z,99.90
2023-04-15T19:57:03.776Z,99.90
2023-04-15T19:59:57.997Z,99.90
2023-04-15T20:02:52.317Z,99.90
2023-04-15T20:05:46.701Z,99.90
2023-04-15T20:08:40.797Z,99.90
2023-04-15T20:12:46.792Z,99.90
2023-04-15T20:14:49.080Z,99.90
2023-04-15T20:17:43.248Z,99.90
2023-04-15T20:20:37.489Z,99.90
2023-04-15T20:23:31.689Z,99.90
2023-04-15T20:26:26.119Z,99.90
2023-04-15T20:29:20.346Z,99.90
2023-04-15T20:32:14.586Z,99.90
2023-04-15T20:35:09.218Z,99.90
2023-04-15T20:38:05.186Z,99.90
2023-04-15T20:40:59.650Z,99.90
2023-04-15T20:43:53.815Z,99.90
2023-04-15T20:46:48.180Z,99.90
2023-04-15T20:49:42.404Z,99.90
2023-04-15T20:52:36.717Z,99.90
2023-04-15T20:55:30.952Z,99.90
2023-04-15T20:58:25.330Z,99.90
2023-04-15T21:01:19.597Z,99.90
2023-04-15T21:04:13.777Z,99.90
2023-04-15T21:07:08.087Z,99.90
2023-04-15T21:10:02.396Z,99.90
2023-04-15T21:12:56.677Z,99.90
2023-04-15T21:15:54.605Z,99.90
2023-04-15T21:18:48.722Z,99.90
2023-04-15T21:21:42.856Z,99.90
2023-04-15T21:24:37.052Z,99.90
2023-04-15T21:27:31.225Z,99.90
2023-04-15T21:30:25.409Z,99.90
2023-04-15T21:33:21.764Z,99.90
2023-04-15T21:36:15.952Z,99.90
2023-04-15T21:39:10.191Z,99.90
2023-04-15T21:42:04.358Z,99.90
2023-04-15T21:44:58.534Z,99.90
2023-04-15T21:47:59.466Z,99.90
2023-04-15T21:51:02.953Z,99.90
2023-04-15T21:53:57.182Z,99.90
2023-04-15T21:56:52.058Z,99.90
2023-04-15T21:59:46.289Z,99.90
2023-04-15T22:02:40.617Z,99.90
2023-04-15T22:05:34.830Z,99.90
2023-04-15T22:08:29.089Z,99.90
2023-04-15T22:11:28.144Z,99.90
2023-04-15T22:14:22.858Z,99.90
2023-04-15T22:17:17.051Z,99.90
2023-04-15T22:20:11.821Z,99.90
2023-04-15T22:23:09.050Z,99.90
2023-04-15T22:26:02.809Z,97.00
2023-04-15T22:28:56.909Z,96.50
2023-04-15T22:31:51.286Z,96.10
2023-04-15T22:34:45.561Z,97.70
2023-04-15T22:37:39.815Z,94.90
2023-04-15T22:40:34.375Z,92.70
2023-04-15T22:43:28.685Z,92.90
2023-04-15T22:46:22.852Z,94.00
2023-04-15T22:49:17.128Z,94.30
2023-04-15T22:52:14.568Z,95.00
2023-04-15T22:55:18.432Z,96.40
2023-04-15T22:58:12.610Z,96.90
2023-04-15T23:01:07.093Z,94.40
2023-04-15T23:04:05.631Z,90.70
2023-04-15T23:07:04.516Z,84.30
2023-04-15T23:09:59.328Z,76.10
2023-04-15T23:12:53.507Z,69.80
2023-04-15T23:15:47.770Z,62.90
2023-04-15T23:18:41.991Z,59.10
2023-04-15T23:21:36.210Z,56.30
2023-04-15T23:24:30.396Z,54.90
2023-04-15T23:27:24.533Z,51.90
2023-04-15T23:30:18.833Z,49.80
2023-04-15T23:33:13.256Z,51.20
2023-04-15T23:36:10.233Z,53.80
2023-04-15T23:39:04.359Z,54.80
2023-04-15T23:41:58.748Z,57.60
2023-04-15T23:44:52.917Z,60.40
2023-04-15T23:47:47.440Z,63.50
2023-04-15T23:50:41.772Z,65.40
2023-04-15T23:53:36.102Z,67.70
2023-04-15T23:56:30.285Z,69.80
2023-04-15T23:59:24.644Z,71.50
